Погода Арагарсасна 2 недели

Гояс, Бразилия

21 июля-03 августа
  • 21июля
    Сегодня
    +15°
    +33°
    Ясно и безоблачно
    ВремяПогодаТемператураВлажностьДавлениеВетер, м/сВероятность осадков
    02:00Ясно и безоблачно+17°C58 %737 мм2.2 м/с5 %
    05:00Ясно и безоблачно+15°C55 %738 мм2.2 м/с5 %
    08:00Ясно и безоблачно+21°C46 %740 мм0.6 м/с5 %
    11:00Ясно и безоблачно+29°C35 %740 мм2.6 м/с5 %
    14:00Ясно и безоблачно+32°C29 %738 мм0.7 м/с5 %
    17:00Ясно и безоблачно+29°C33 %737 мм1.3 м/с5 %
    20:00Ясно и безоблачно+24°C51 %738 мм0.5 м/с5 %
    23:00Ясно и безоблачно+23°C49 %738 мм1.5 м/с5 %
  • 22июля
    Понедельник
    +17°
    +34°
    Ясно и безоблачно
    ВремяПогодаТемператураВлажностьДавлениеВетер, м/сВероятность осадков
    02:00Ясно и безоблачно+20°C57 %737 мм0.9 м/с5 %
    05:00Ясно и безоблачно+18°C65 %738 мм2.1 м/с5 %
    08:00Ясно и безоблачно+23°C51 %740 мм0.6 м/с5 %
    11:00Небольшая облачность+31°C34 %740 мм2.4 м/с5 %
    14:00Ясно и безоблачно+33°C30 %738 мм0.7 м/с5 %
    17:00Ясно и безоблачно+29°C44 %738 мм1.5 м/с5 %
    20:00Ясно и безоблачно+24°C52 %738 мм0.5 м/с5 %
    23:00Ясно и безоблачно+21°C62 %738 мм1.7 м/с5 %
  • 23июля
    Вторник
    +16°
    +34°
    Облачно с прояснениями
    ВремяПогодаТемператураВлажностьДавлениеВетер, м/сВероятность осадков
    02:00Небольшая облачность+21°C56 %738 мм0.9 м/с5 %
    05:00Небольшая облачность+19°C63 %738 мм0.6 м/с5 %
    08:00Облачно с прояснениями+24°C48 %740 мм0.6 м/с5 %
    11:00Облачно с прояснениями+31°C34 %740 мм2.6 м/с5 %
    14:00Облачно с прояснениями+34°C30 %738 мм0.7 м/с5 %
    17:00Ясно и безоблачно+31°C34 %738 мм1.1 м/с5 %
    20:00Ясно и безоблачно+25°C51 %738 мм0.5 м/с5 %
    23:00Ясно и безоблачно+24°C48 %739 мм0.6 м/с5 %
  • 24июля
    Среда
    +19°
    +35°
    Ясно и безоблачно
    ВремяПогодаТемператураВлажностьДавлениеВетер, м/сВероятность осадков
    02:00Ясно и безоблачно+21°C58 %737 мм0.8 м/с5 %
    05:00Ясно и безоблачно+18°C76 %738 мм2.0 м/с5 %
    08:00Ясно и безоблачно+24°C53 %740 мм0.6 м/с5 %
    11:00Ясно и безоблачно+32°C32 %740 мм3.1 м/с5 %
    14:00Ясно и безоблачно+34°C26 %738 мм0.7 м/с5 %
    17:00Ясно и безоблачно+30°C43 %738 мм1.7 м/с5 %
    20:00Ясно и безоблачно+25°C49 %739 мм0.5 м/с5 %
    23:00Ясно и безоблачно+23°C50 %739 мм0.9 м/с5 %
  • 25июля
    Четверг
    +17°
    +35°
    Ясно и безоблачно
    ВремяПогодаТемператураВлажностьДавлениеВетер, м/сВероятность осадков
    02:00Ясно и безоблачно+21°C55 %738 мм1.5 м/с5 %
    05:00Ясно и безоблачно+22°C50 %738 мм0.8 м/с5 %
    08:00Ясно и безоблачно+24°C51 %740 мм0.6 м/с5 %
    11:00Ясно и безоблачно+33°C27 %740 мм1.7 м/с5 %
    14:00Ясно и безоблачно+35°C23 %737 мм0.7 м/с5 %
    17:00Ясно и безоблачно+30°C32 %737 мм2.0 м/с5 %
    20:00Ясно и безоблачно+25°C43 %737 мм0.5 м/с5 %
    23:00Ясно и безоблачно+23°C44 %737 мм1.6 м/с5 %
Мы используем cookies
Соглашаюсь